createdAt,value
2022-09-28T00:01:26.143Z,1.65
2022-09-28T00:03:57.530Z,1.55
2022-09-28T00:06:28.224Z,1.15
2022-09-28T00:08:57.245Z,1.30
2022-09-28T00:11:28.483Z,1.65
2022-09-28T00:14:03.349Z,1.73
2022-09-28T00:16:34.748Z,1.67
2022-09-28T00:19:04.000Z,2.13
2022-09-28T00:21:35.601Z,1.90
2022-09-28T00:24:19.964Z,1.50
2022-09-28T00:26:54.875Z,1.83
2022-09-28T00:31:59.700Z,1.60
2022-09-28T00:34:31.148Z,1.95
2022-09-28T00:36:59.832Z,1.95
2022-09-28T00:39:28.460Z,2.15
2022-09-28T00:41:58.635Z,2.00
2022-09-28T00:44:51.601Z,2.17
2022-09-28T00:47:49.863Z,2.28
2022-09-28T00:50:27.218Z,2.30
2022-09-28T00:53:01.996Z,2.35
2022-09-28T00:55:38.423Z,2.47
2022-09-28T00:58:12.591Z,2.17
2022-09-28T01:00:42.184Z,2.38
2022-09-28T01:03:11.137Z,2.50
2022-09-28T01:05:41.673Z,2.60
2022-09-28T01:08:11.673Z,2.40
2022-09-28T01:10:43.509Z,2.30
2022-09-28T01:13:13.915Z,2.42
2022-09-28T01:15:54.662Z,2.35
2022-09-28T01:18:35.148Z,2.97
2022-09-28T01:21:07.430Z,2.22
2022-09-28T01:24:14.129Z,2.53
2022-09-28T01:27:06.305Z,2.13
2022-09-28T01:30:01.332Z,2.55
2022-09-28T01:32:39.302Z,2.00
2022-09-28T01:35:12.328Z,2.45
2022-09-28T01:37:51.970Z,2.50
2022-09-28T01:40:22.930Z,2.35
2022-09-28T01:42:58.361Z,2.30
2022-09-28T01:45:33.227Z,2.33
2022-09-28T01:48:05.949Z,2.65
2022-09-28T01:50:40.648Z,2.55
2022-09-28T01:53:15.610Z,2.47
2022-09-28T01:55:48.314Z,2.47
2022-09-28T01:58:25.381Z,2.35
2022-09-28T02:01:01.180Z,2.33
2022-09-28T02:03:37.808Z,2.88
2022-09-28T02:06:14.459Z,2.45
2022-09-28T02:08:50.386Z,2.42
2022-09-28T02:11:23.347Z,2.17
2022-09-28T02:13:59.899Z,2.42
2022-09-28T02:16:37.538Z,2.60
2022-09-28T02:19:06.568Z,2.65
2022-09-28T02:21:43.233Z,2.67
2022-09-28T02:24:21.728Z,2.92
2022-09-28T02:26:53.039Z,2.70
2022-09-28T02:29:22.565Z,2.50
2022-09-28T02:31:52.725Z,2.65
2022-09-28T02:34:21.082Z,2.30
2022-09-28T02:36:49.523Z,2.67
2022-09-28T02:39:19.073Z,2.72
2022-09-28T02:41:59.748Z,2.00
2022-09-28T02:44:51.682Z,2.38
2022-09-28T02:47:39.040Z,2.60
2022-09-28T02:50:22.770Z,2.35
2022-09-28T02:53:26.162Z,2.40
2022-09-28T02:56:12.616Z,2.13
2022-09-28T02:58:54.974Z,2.22
2022-09-28T03:01:32.553Z,2.05
2022-09-28T03:04:12.348Z,1.98
2022-09-28T03:06:48.363Z,2.05
2022-09-28T03:09:22.552Z,2.25
2022-09-28T03:11:56.041Z,1.95
2022-09-28T03:14:24.536Z,2.40
2022-09-28T03:16:54.099Z,2.17
2022-09-28T03:19:29.197Z,2.97
2022-09-28T03:21:57.352Z,3.03
2022-09-28T03:24:25.548Z,2.40
2022-09-28T03:26:53.718Z,3.08
2022-09-28T03:29:21.998Z,2.58
2022-09-28T03:31:50.191Z,2.40
2022-09-28T03:34:19.727Z,2.40
2022-09-28T03:36:47.915Z,1.77
2022-09-28T03:39:16.131Z,2.13
2022-09-28T03:41:44.324Z,2.33
2022-09-28T03:44:12.845Z,2.70
2022-09-28T03:46:41.106Z,2.08
2022-09-28T03:49:10.553Z,2.63
2022-09-28T03:51:40.160Z,2.75
2022-09-28T03:54:08.346Z,2.25
2022-09-28T03:56:36.529Z,2.53
2022-09-28T03:59:05.305Z,3.15
2022-09-28T04:01:33.615Z,2.13
2022-09-28T04:04:02.357Z,2.00
2022-09-28T04:06:30.533Z,2.15
2022-09-28T04:09:00.431Z,2.03
2022-09-28T04:11:42.851Z,1.92
2022-09-28T04:14:16.752Z,2.63
2022-09-28T04:16:45.458Z,2.40
2022-09-28T04:19:14.178Z,2.17
2022-09-28T04:21:42.496Z,2.30
2022-09-28T04:24:12.718Z,2.80
2022-09-28T04:26:40.930Z,2.40
2022-09-28T04:29:18.929Z,3.20
2022-09-28T04:31:49.837Z,3.05
2022-09-28T04:34:20.606Z,2.75
2022-09-28T04:36:50.098Z,2.80
2022-09-28T04:39:20.094Z,2.70
2022-09-28T04:41:49.910Z,3.47
2022-09-28T04:44:18.165Z,2.63
2022-09-28T04:46:46.344Z,2.70
2022-09-28T04:49:14.871Z,2.50
2022-09-28T04:51:43.180Z,2.97
2022-09-28T04:54:11.368Z,2.92
2022-09-28T04:56:41.811Z,3.53
2022-09-28T04:59:10.006Z,3.05
2022-09-28T05:01:38.340Z,2.72
2022-09-28T05:04:06.519Z,2.28
2022-09-28T05:06:34.692Z,2.85
2022-09-28T05:09:02.923Z,3.35
2022-09-28T05:11:31.086Z,3.15
2022-09-28T05:14:00.811Z,3.03
2022-09-28T05:16:30.944Z,3.13
2022-09-28T05:18:59.208Z,3.53
2022-09-28T05:21:27.978Z,2.90
2022-09-28T05:23:56.719Z,3.08
2022-09-28T05:26:25.426Z,3.67
2022-09-28T05:28:53.792Z,2.22
2022-09-28T05:31:23.339Z,2.63
2022-09-28T05:33:52.006Z,2.13
2022-09-28T05:36:20.756Z,2.72
2022-09-28T05:38:48.950Z,3.20
2022-09-28T05:41:17.112Z,2.90
2022-09-28T05:43:45.712Z,2.58
2022-09-28T05:46:14.561Z,2.83
2022-09-28T05:48:44.239Z,2.67
2022-09-28T05:51:12.401Z,2.33
2022-09-28T05:53:40.545Z,2.50
2022-09-28T05:56:08.804Z,2.78
2022-09-28T05:58:36.987Z,2.85
2022-09-28T06:01:05.233Z,2.67
2022-09-28T06:03:33.429Z,3.13
2022-09-28T06:06:03.404Z,2.97
2022-09-28T06:08:33.304Z,2.63
2022-09-28T06:11:02.174Z,3.00
2022-09-28T06:13:32.079Z,2.45
2022-09-28T06:16:00.262Z,2.53
2022-09-28T06:18:28.443Z,2.22
2022-09-28T06:20:57.057Z,2.40
2022-09-28T06:23:26.712Z,3.05
2022-09-28T06:25:54.872Z,2.83
2022-09-28T06:28:23.081Z,3.20
2022-09-28T06:30:51.306Z,2.90
2022-09-28T06:33:19.587Z,2.88
2022-09-28T06:35:47.985Z,2.72
2022-09-28T06:38:16.185Z,3.15
2022-09-28T06:40:45.993Z,3.35
2022-09-28T06:43:15.787Z,3.80
2022-09-28T06:45:44.942Z,2.88
2022-09-28T06:48:13.795Z,3.30
2022-09-28T06:50:43.354Z,3.17
2022-09-28T06:53:14.647Z,3.33
2022-09-28T06:55:48.365Z,3.55
2022-09-28T06:58:19.595Z,3.28
2022-09-28T07:00:49.704Z,3.53
2022-09-28T07:03:20.782Z,2.95
2022-09-28T07:05:52.652Z,3.50
2022-09-28T07:08:24.335Z,2.83
2022-09-28T07:10:56.309Z,3.28
2022-09-28T07:13:50.555Z,2.97
2022-09-28T07:16:16.234Z,2.47
2022-09-28T07:18:44.469Z,2.38
2022-09-28T07:21:23.680Z,3.30
2022-09-28T07:23:55.166Z,3.20
2022-09-28T07:26:25.638Z,2.72
2022-09-28T07:28:55.909Z,2.78
2022-09-28T07:31:26.197Z,2.90
2022-09-28T07:33:55.345Z,3.45
2022-09-28T07:36:23.731Z,2.50
2022-09-28T07:38:51.982Z,3.30
2022-09-28T07:41:32.101Z,2.85
2022-09-28T07:44:06.272Z,2.63
2022-09-28T07:46:35.358Z,2.90
2022-09-28T07:49:08.321Z,3.47
2022-09-28T07:51:39.791Z,2.90
2022-09-28T07:54:08.063Z,3.90
2022-09-28T07:56:36.238Z,3.22
2022-09-28T07:59:05.792Z,3.25
2022-09-28T08:01:34.060Z,4.00
2022-09-28T08:04:02.801Z,3.88
2022-09-28T08:06:31.928Z,3.75
2022-09-28T08:09:01.774Z,3.97
2022-09-28T08:11:31.463Z,4.32
2022-09-28T08:14:00.417Z,3.72
2022-09-28T08:16:32.465Z,3.40
2022-09-28T08:19:00.781Z,3.97
2022-09-28T08:21:45.893Z,4.20
2022-09-28T08:24:15.464Z,4.28
2022-09-28T08:26:44.090Z,4.63
2022-09-28T08:29:12.559Z,4.22
2022-09-28T08:31:42.101Z,3.83
2022-09-28T08:34:10.479Z,4.60
2022-09-28T08:36:39.433Z,5.18
2022-09-28T08:39:07.851Z,4.25
2022-09-28T08:41:45.915Z,4.57
2022-09-28T08:44:23.956Z,3.92
2022-09-28T08:46:57.568Z,4.13
2022-09-28T08:49:31.202Z,3.05
2022-09-28T08:52:02.459Z,4.03
2022-09-28T08:54:41.655Z,3.50
2022-09-28T08:57:16.586Z,3.97
2022-09-28T08:59:51.340Z,4.30
2022-09-28T09:02:27.217Z,4.05
2022-09-28T09:04:57.038Z,4.72
2022-09-28T09:07:51.152Z,3.42
2022-09-28T09:10:50.577Z,4.10
2022-09-28T09:13:46.425Z,4.07
2022-09-28T09:16:30.454Z,4.25
2022-09-28T09:19:10.924Z,3.58
2022-09-28T09:21:43.122Z,3.40
2022-09-28T09:24:27.494Z,4.10
2022-09-28T09:27:07.569Z,3.63
2022-09-28T09:29:57.984Z,3.10
2022-09-28T09:32:57.567Z,3.47
2022-09-28T09:35:59.855Z,3.30
2022-09-28T09:38:58.090Z,3.05
2022-09-28T09:41:44.495Z,3.72
2022-09-28T09:44:39.711Z,3.22
2022-09-28T09:47:12.756Z,3.90
2022-09-28T09:49:44.679Z,3.88
2022-09-28T09:52:23.475Z,3.87
2022-09-28T09:54:56.506Z,4.00
2022-09-28T09:57:30.228Z,4.20
2022-09-28T10:00:01.493Z,4.03
2022-09-28T10:02:32.919Z,5.30
2022-09-28T10:05:07.124Z,3.85
2022-09-28T10:07:43.656Z,4.25
2022-09-28T10:10:19.096Z,3.95
2022-09-28T10:12:49.507Z,3.97
2022-09-28T10:15:24.231Z,3.70
2022-09-28T10:17:53.067Z,3.50
2022-09-28T10:20:22.180Z,3.97
2022-09-28T10:22:53.178Z,4.45
2022-09-28T10:25:21.823Z,4.20
2022-09-28T10:27:52.610Z,3.85
2022-09-28T10:30:24.280Z,3.90
2022-09-28T10:32:59.024Z,3.70
2022-09-28T10:35:30.443Z,5.07
2022-09-28T10:38:04.868Z,4.30
2022-09-28T10:40:43.810Z,4.18
2022-09-28T10:43:23.601Z,4.18
2022-09-28T10:46:02.724Z,4.55
2022-09-28T10:48:47.070Z,4.72
2022-09-28T10:51:15.344Z,4.28
2022-09-28T10:54:01.405Z,3.78
2022-09-28T10:56:37.371Z,4.30
2022-09-28T10:59:37.922Z,3.65
2022-09-28T11:02:21.502Z,4.10
2022-09-28T11:04:55.822Z,4.10
2022-09-28T11:07:27.373Z,4.72
2022-09-28T11:09:58.480Z,4.43
2022-09-28T11:12:31.158Z,4.45
2022-09-28T11:15:03.445Z,4.45
2022-09-28T11:17:38.525Z,4.13
2022-09-28T11:20:33.365Z,4.32
2022-09-28T11:23:18.639Z,3.58
2022-09-28T11:25:59.763Z,3.47
2022-09-28T11:28:33.574Z,3.55
2022-09-28T11:31:03.437Z,3.67
2022-09-28T11:33:34.788Z,3.67
2022-09-28T11:36:28.710Z,4.70
2022-09-28T11:39:08.300Z,3.58
2022-09-28T11:42:05.305Z,3.90
2022-09-28T11:44:44.762Z,3.50
2022-09-28T11:47:38.861Z,3.63
2022-09-28T11:50:24.346Z,3.80
2022-09-28T11:53:05.159Z,3.92
2022-09-28T11:55:40.082Z,3.22
2022-09-28T11:58:16.295Z,3.58
2022-09-28T12:00:51.403Z,3.70
2022-09-28T12:03:26.313Z,3.75
2022-09-28T12:06:01.993Z,3.33
2022-09-28T12:08:36.844Z,4.43
2022-09-28T12:11:11.581Z,4.07
2022-09-28T12:13:47.686Z,4.03
2022-09-28T12:19:20.128Z,3.83
2022-09-28T12:21:52.215Z,3.53
2022-09-28T12:24:26.011Z,3.83
2022-09-28T12:27:00.073Z,3.33
2022-09-28T12:29:37.855Z,3.47
2022-09-28T12:32:13.996Z,3.30
2022-09-28T12:34:43.361Z,4.15
2022-09-28T12:37:33.326Z,3.58
2022-09-28T12:40:26.947Z,3.45
2022-09-28T12:43:31.196Z,3.53
2022-09-28T12:46:25.079Z,2.97
2022-09-28T12:50:20.215Z,3.47
2022-09-28T12:52:22.208Z,2.92
2022-09-28T12:55:25.925Z,2.80
2022-09-28T12:58:02.012Z,3.55
2022-09-28T13:00:40.023Z,2.95
2022-09-28T13:03:45.855Z,3.08
2022-09-28T13:06:48.152Z,2.65
2022-09-28T13:09:27.146Z,3.33
2022-09-28T13:12:31.957Z,3.15
2022-09-28T13:15:32.119Z,3.25
2022-09-28T13:18:13.689Z,2.60
2022-09-28T13:21:00.410Z,2.92
2022-09-28T13:23:34.540Z,2.70
2022-09-28T13:26:13.886Z,3.28
2022-09-28T13:28:44.228Z,3.08
2022-09-28T13:31:14.029Z,2.72
2022-09-28T13:33:46.787Z,2.75
2022-09-28T13:39:53.030Z,2.13
2022-09-28T13:43:04.661Z,2.53
2022-09-28T13:45:54.705Z,2.38
2022-09-28T13:48:29.315Z,2.08
2022-09-28T13:51:38.102Z,1.95
2022-09-28T13:54:32.149Z,2.10
2022-09-28T13:57:14.511Z,2.00
2022-09-28T13:59:58.478Z,2.15
2022-09-28T14:02:36.540Z,2.05
2022-09-28T14:05:07.653Z,2.25
2022-09-28T14:08:12.863Z,2.10
2022-09-28T14:10:51.688Z,2.10
2022-09-28T14:14:24.781Z,2.10
2022-09-28T14:17:20.584Z,1.85
2022-09-28T14:19:54.276Z,2.13
2022-09-28T14:22:30.551Z,2.20
2022-09-28T14:25:10.031Z,2.17
2022-09-28T14:28:02.758Z,1.67
2022-09-28T14:30:49.544Z,1.90
2022-09-28T14:33:26.357Z,1.85
2022-09-28T14:35:58.316Z,1.55
2022-09-28T14:38:49.757Z,1.80
2022-09-28T14:41:34.622Z,1.85
2022-09-28T14:44:09.387Z,1.50
2022-09-28T14:46:44.758Z,1.75
2022-09-28T14:49:47.612Z,1.55
2022-09-28T14:52:36.908Z,1.90
2022-09-28T14:55:12.497Z,1.67
2022-09-28T14:57:43.406Z,1.50
2022-09-28T15:00:21.852Z,1.55
2022-09-28T15:02:55.114Z,1.20
2022-09-28T15:05:28.805Z,1.20
2022-09-28T15:07:57.274Z,1.17
2022-09-28T15:10:32.180Z,1.38
2022-09-28T15:13:02.389Z,1.92
2022-09-28T15:15:36.108Z,1.30
2022-09-28T15:18:36.532Z,1.30
2022-09-28T15:21:05.168Z,1.30
2022-09-28T15:23:37.554Z,1.42
2022-09-28T15:26:08.539Z,1.45
2022-09-28T15:28:44.225Z,1.70
2022-09-28T15:31:20.232Z,1.60
2022-09-28T15:34:07.183Z,1.45
2022-09-28T15:36:39.534Z,2.00
2022-09-28T15:39:14.924Z,1.90
2022-09-28T15:41:46.009Z,2.00
2022-09-28T15:44:33.656Z,1.55
2022-09-28T15:47:14.831Z,1.63
2022-09-28T15:49:49.383Z,1.70
2022-09-28T15:52:40.830Z,1.80
2022-09-28T15:55:23.657Z,1.90
2022-09-28T15:57:51.933Z,1.60
2022-09-28T16:00:29.772Z,1.50
2022-09-28T16:03:17.823Z,1.90
2022-09-28T16:05:50.104Z,1.80
2022-09-28T16:08:24.751Z,1.92
2022-09-28T16:11:07.911Z,1.88
2022-09-28T16:16:04.991Z,1.55
2022-09-28T16:18:35.673Z,1.52
2022-09-28T16:21:46.383Z,1.60
2022-09-28T16:24:24.576Z,1.75
2022-09-28T16:26:59.770Z,1.63
2022-09-28T16:29:39.130Z,1.85
2022-09-28T16:32:38.397Z,1.60
2022-09-28T16:35:30.405Z,1.75
2022-09-28T16:38:10.688Z,2.00
2022-09-28T16:40:46.254Z,2.00
2022-09-28T16:43:25.252Z,2.60
2022-09-28T16:45:56.631Z,2.45
2022-09-28T16:48:27.918Z,1.98
2022-09-28T16:50:56.769Z,2.28
2022-09-28T16:53:44.358Z,2.33
2022-09-28T16:56:13.605Z,2.25
2022-09-28T16:58:42.519Z,2.10
2022-09-28T17:01:13.410Z,2.25
2022-09-28T17:03:46.593Z,3.53
2022-09-28T17:06:16.054Z,3.90
2022-09-28T17:08:46.120Z,4.38
2022-09-28T17:11:20.476Z,3.33
2022-09-28T17:13:52.162Z,2.80
2022-09-28T17:16:37.124Z,2.70
2022-09-28T17:19:20.926Z,2.78
2022-09-28T17:21:50.190Z,3.10
2022-09-28T17:24:20.378Z,2.47
2022-09-28T17:26:51.065Z,2.33
2022-09-28T17:29:20.191Z,2.60
2022-09-28T17:31:49.225Z,2.35
2022-09-28T17:34:17.820Z,2.60
2022-09-28T17:36:46.568Z,2.50
2022-09-28T17:39:16.878Z,2.28
2022-09-28T17:41:46.936Z,2.17
2022-09-28T17:44:15.844Z,2.38
2022-09-28T17:46:49.148Z,2.15
2022-09-28T17:49:18.683Z,2.05
2022-09-28T17:51:47.095Z,2.50
2022-09-28T17:54:16.916Z,2.15
2022-09-28T17:56:46.527Z,2.28
2022-09-28T17:59:17.984Z,2.45
2022-09-28T18:01:48.145Z,2.97
2022-09-28T18:04:39.740Z,3.60
2022-09-28T18:07:06.347Z,2.95
2022-09-28T18:09:34.516Z,3.10
2022-09-28T18:12:06.830Z,4.07
2022-09-28T18:14:35.791Z,2.95
2022-09-28T18:17:04.304Z,3.05
2022-09-28T18:19:32.744Z,2.92
2022-09-28T18:22:01.721Z,3.03
2022-09-28T18:24:32.387Z,3.22
2022-09-28T18:27:00.668Z,2.30
2022-09-28T18:29:33.256Z,2.90
2022-09-28T18:32:02.419Z,2.80
2022-09-28T18:34:30.594Z,2.65
2022-09-28T18:36:58.888Z,3.25
2022-09-28T18:39:27.287Z,2.55
2022-09-28T18:41:55.516Z,3.15
2022-09-28T18:44:24.159Z,3.35
2022-09-28T18:46:54.367Z,3.35
2022-09-28T18:49:23.525Z,3.53
2022-09-28T18:51:52.470Z,4.00
2022-09-28T18:54:20.677Z,3.42
2022-09-28T18:56:50.326Z,3.10
2022-09-28T18:59:18.635Z,2.83
2022-09-28T19:01:46.947Z,3.47
2022-09-28T19:04:16.866Z,3.60
2022-09-28T19:06:47.530Z,3.78
2022-09-28T19:09:15.711Z,2.83
2022-09-28T19:11:43.874Z,3.13
2022-09-28T19:14:14.982Z,3.08
2022-09-28T19:16:43.989Z,3.13
2022-09-28T19:19:14.442Z,2.92
2022-09-28T19:21:44.882Z,3.22
2022-09-28T19:24:15.560Z,3.22
2022-09-28T19:26:45.169Z,2.95
2022-09-28T19:29:14.297Z,3.53
2022-09-28T19:31:44.334Z,3.13
2022-09-28T19:34:14.247Z,3.75
2022-09-28T19:36:44.235Z,3.47
2022-09-28T19:39:16.260Z,3.13
2022-09-28T19:41:49.558Z,3.47
2022-09-28T19:44:24.613Z,3.65
2022-09-28T19:46:55.327Z,2.95
2022-09-28T19:49:25.412Z,3.70
2022-09-28T19:52:14.701Z,3.55
2022-09-28T19:54:45.024Z,3.30
2022-09-28T19:57:15.921Z,3.15
2022-09-28T19:59:44.437Z,3.70
2022-09-28T20:02:14.109Z,3.35
2022-09-28T20:04:42.338Z,4.40
2022-09-28T20:07:11.865Z,3.53
2022-09-28T20:09:40.092Z,3.15
2022-09-28T20:12:08.323Z,5.25
2022-09-28T20:14:40.101Z,4.65
2022-09-28T20:17:09.172Z,4.00
2022-09-28T20:19:37.338Z,3.78
2022-09-28T20:22:05.925Z,3.17
2022-09-28T20:24:35.447Z,3.55
2022-09-28T20:27:03.692Z,3.72
2022-09-28T20:29:33.216Z,3.15
2022-09-28T20:32:03.931Z,3.75
2022-09-28T20:34:33.500Z,3.10
2022-09-28T20:37:02.242Z,3.42
2022-09-28T20:39:30.462Z,2.88
2022-09-28T20:41:59.990Z,3.10
2022-09-28T20:44:28.226Z,3.78
2022-09-28T20:46:56.693Z,2.85
2022-09-28T20:49:26.274Z,3.15
2022-09-28T20:51:54.550Z,2.75
2022-09-28T20:54:23.033Z,3.17
2022-09-28T20:56:51.228Z,2.90
2022-09-28T20:59:22.838Z,3.17
2022-09-28T21:01:51.279Z,2.80
2022-09-28T21:04:19.728Z,3.00
2022-09-28T21:06:47.992Z,3.58
2022-09-28T21:09:16.467Z,2.88
2022-09-28T21:11:44.618Z,2.75
2022-09-28T21:14:12.857Z,2.95
2022-09-28T21:16:42.392Z,3.08
2022-09-28T21:19:10.580Z,3.45
2022-09-28T21:21:39.212Z,2.78
2022-09-28T21:24:08.240Z,3.42
2022-09-28T21:26:36.456Z,4.25
2022-09-28T21:29:07.685Z,3.40
2022-09-28T21:31:41.224Z,3.67
2022-09-28T21:34:14.346Z,3.65
2022-09-28T21:36:43.328Z,2.90
2022-09-28T21:39:11.728Z,2.70
2022-09-28T21:41:39.933Z,2.70
2022-09-28T21:44:09.222Z,2.53
2022-09-28T21:46:38.789Z,2.88
2022-09-28T21:49:08.648Z,2.67
2022-09-28T21:51:38.506Z,2.50
2022-09-28T21:54:06.900Z,2.90
2022-09-28T21:56:35.076Z,2.40
2022-09-28T21:59:03.298Z,2.47
2022-09-28T22:01:31.769Z,2.42
2022-09-28T22:04:00.165Z,2.67
2022-09-28T22:06:29.087Z,2.78
2022-09-28T22:08:59.187Z,2.47
2022-09-28T22:11:30.124Z,2.70
2022-09-28T22:14:01.041Z,2.70
2022-09-28T22:16:31.816Z,2.30
2022-09-28T22:19:00.740Z,2.40
2022-09-28T22:21:31.815Z,2.60
2022-09-28T22:24:03.797Z,2.67
2022-09-28T22:26:34.363Z,2.45
2022-09-28T22:29:05.901Z,2.30
2022-09-28T22:31:36.425Z,2.40
2022-09-28T22:34:05.499Z,2.33
2022-09-28T22:36:33.933Z,2.53
2022-09-28T22:39:04.087Z,2.33
2022-09-28T22:41:32.258Z,3.08
2022-09-28T22:44:00.869Z,2.90
2022-09-28T22:46:31.772Z,2.38
2022-09-28T22:49:00.946Z,2.70
2022-09-28T22:51:31.240Z,2.53
2022-09-28T22:53:59.988Z,3.33
2022-09-28T22:56:29.892Z,3.17
2022-09-28T22:58:58.406Z,2.63
2022-09-28T23:01:29.330Z,2.70
2022-09-28T23:03:58.725Z,2.70
2022-09-28T23:06:30.735Z,2.75
2022-09-28T23:08:58.939Z,3.23
2022-09-28T23:11:27.572Z,2.63
2022-09-28T23:13:59.010Z,2.75
2022-09-28T23:16:28.226Z,2.70
2022-09-28T23:18:57.134Z,2.30
2022-09-28T23:21:29.226Z,2.63
2022-09-28T23:24:01.033Z,2.47
2022-09-28T23:26:32.038Z,2.92
2022-09-28T23:29:01.903Z,2.38
2022-09-28T23:31:32.596Z,2.90
2022-09-28T23:34:02.757Z,2.63
2022-09-28T23:36:31.809Z,2.47
2022-09-28T23:39:00.873Z,2.60
2022-09-28T23:41:29.349Z,2.58
2022-09-28T23:43:57.561Z,2.72
2022-09-28T23:46:27.243Z,2.25
2022-09-28T23:48:55.608Z,2.15
2022-09-28T23:51:23.907Z,2.55
2022-09-28T23:53:52.119Z,2.67
2022-09-28T23:56:20.341Z,2.63
2022-09-28T23:58:48.509Z,2.40
